Terminal Aerodrome Forecast
Issued by NWS

Home | Current Version | Previous Version | Text Only | Print | Product List | Glossary On
Versions: 1 2 3 4 5 6 7 8 9 10 11 12 13 14 15 16 17
000
FTUS46 KMTR 211700
TAFOAK
TAF
KOAK 211739Z 2118/2224 31006KT P6SM FEW020 SCT180
     FM212100 29012KT P6SM SKC
     FM220400 29004KT P6SM SKC
     FM221400 VRB03KT P6SM BKN015
     FM221800 22004KT P6SM SCT015
     FM222200 28010KT P6SM SCT250=

USA.gov is the U.S. government's official web portal to all federal, state and local government web resources and services.